createdAt,value
2018-04-13T00:02:21.694Z,15.17
2018-04-13T00:04:55.498Z,15.23
2018-04-13T00:07:29.298Z,12.83
2018-04-13T00:10:02.912Z,11.27
2018-04-13T00:12:36.701Z,10.77
2018-04-13T00:15:10.510Z,10.47
2018-04-13T00:17:45.004Z,11.70
2018-04-13T00:20:18.559Z,10.60
2018-04-13T00:22:52.202Z,10.50
2018-04-13T00:25:25.944Z,11.13
2018-04-13T00:27:59.745Z,11.37
2018-04-13T00:30:33.381Z,11.00
2018-04-13T00:33:07.030Z,11.37
2018-04-13T00:35:40.575Z,11.83
2018-04-13T00:38:14.155Z,12.13
2018-04-13T00:40:48.557Z,11.30
2018-04-13T00:43:22.277Z,11.67
2018-04-13T00:45:56.678Z,11.00
2018-04-13T00:48:30.399Z,11.67
2018-04-13T00:51:04.201Z,12.10
2018-04-13T00:53:37.746Z,12.43
2018-04-13T00:56:11.403Z,11.27
2018-04-13T00:58:45.003Z,11.37
2018-04-13T01:01:18.533Z,12.40
2018-04-13T01:03:52.069Z,12.27
2018-04-13T01:06:26.630Z,11.27
2018-04-13T01:09:01.167Z,12.60
2018-04-13T01:11:36.287Z,12.67
2018-04-13T01:14:09.949Z,13.27
2018-04-13T01:16:43.681Z,13.87
2018-04-13T01:19:17.182Z,13.50
2018-04-13T01:21:50.889Z,12.10
2018-04-13T01:24:24.500Z,13.53
2018-04-13T01:26:58.291Z,13.53
2018-04-13T01:29:32.582Z,13.70
2018-04-13T01:32:07.138Z,13.83
2018-04-13T01:34:40.942Z,14.07
2018-04-13T01:37:15.254Z,14.93
2018-04-13T01:39:49.034Z,15.33
2018-04-13T01:42:22.770Z,15.50
2018-04-13T01:44:57.391Z,15.23
2018-04-13T01:47:30.996Z,14.53
2018-04-13T01:50:04.748Z,15.80
2018-04-13T01:52:38.603Z,15.10
2018-04-13T01:55:12.206Z,14.23
2018-04-13T01:57:46.014Z,15.23
2018-04-13T02:00:20.503Z,15.43
2018-04-13T02:02:54.121Z,14.63
2018-04-13T02:05:28.042Z,16.77
2018-04-13T02:08:01.639Z,15.93
2018-04-13T02:10:35.331Z,16.20
2018-04-13T02:13:09.057Z,17.10
2018-04-13T02:15:42.718Z,16.73
2018-04-13T02:18:17.161Z,15.70
2018-04-13T02:20:50.871Z,16.57
2018-04-13T02:23:24.881Z,16.20
2018-04-13T02:25:58.499Z,17.27
2018-04-13T02:28:32.090Z,15.30
2018-04-13T02:31:06.579Z,15.50
2018-04-13T02:33:40.318Z,15.57
2018-04-13T02:36:14.611Z,14.37
2018-04-13T02:38:48.422Z,13.43
2018-04-13T02:41:21.931Z,13.27
2018-04-13T02:43:55.539Z,13.63
2018-04-13T02:46:29.231Z,14.87
2018-04-13T02:49:02.803Z,14.33
2018-04-13T02:51:37.226Z,13.47
2018-04-13T02:54:10.983Z,14.43
2018-04-13T02:56:44.769Z,12.73
2018-04-13T02:59:18.426Z,14.00
2018-04-13T03:01:51.987Z,12.60
2018-04-13T03:04:25.601Z,12.57
2018-04-13T03:06:59.374Z,12.47
2018-04-13T03:09:33.176Z,12.07
2018-04-13T03:12:07.816Z,11.83
2018-04-13T03:14:41.612Z,12.57
2018-04-13T03:17:15.173Z,13.37
2018-04-13T03:19:48.808Z,14.83
2018-04-13T03:22:22.695Z,14.77
2018-04-13T03:24:56.635Z,14.10
2018-04-13T03:27:31.243Z,14.50
2018-04-13T03:30:05.063Z,15.87
2018-04-13T03:32:38.711Z,15.57
2018-04-13T03:35:12.378Z,15.20
2018-04-13T03:37:45.938Z,14.70
2018-04-13T03:40:20.144Z,14.67
2018-04-13T03:42:53.886Z,15.00
2018-04-13T03:45:27.570Z,15.10
2018-04-13T03:48:01.866Z,15.67
2018-04-13T03:50:35.505Z,15.40
2018-04-13T03:53:09.163Z,14.97
2018-04-13T03:55:42.906Z,15.83
2018-04-13T03:58:16.590Z,15.50
2018-04-13T04:00:50.191Z,15.27
2018-04-13T04:03:24.115Z,15.33
2018-04-13T04:05:57.671Z,14.60
2018-04-13T04:08:31.186Z,17.08
2018-04-13T04:11:04.924Z,15.00
2018-04-13T04:13:38.591Z,13.57
2018-04-13T04:16:12.148Z,15.37
2018-04-13T04:18:46.409Z,15.37
2018-04-13T04:21:32.021Z,18.90
2018-04-13T04:24:18.451Z,19.00
2018-04-13T04:26:52.123Z,17.70
2018-04-13T04:29:25.823Z,17.73
2018-04-13T04:31:59.529Z,17.43
2018-04-13T04:34:33.437Z,15.83
2018-04-13T04:37:07.959Z,16.10
2018-04-13T04:39:41.671Z,16.43
2018-04-13T04:42:16.070Z,17.10
2018-04-13T04:44:49.782Z,16.83
2018-04-13T04:47:24.097Z,16.90
2018-04-13T04:49:57.787Z,16.77
2018-04-13T04:52:31.394Z,16.40
2018-04-13T04:55:05.012Z,17.83
2018-04-13T04:57:38.702Z,17.73
2018-04-13T05:00:12.486Z,16.83
2018-04-13T05:02:46.226Z,16.07
2018-04-13T05:05:19.932Z,16.27
2018-04-13T05:07:53.629Z,16.63
2018-04-13T05:10:27.344Z,17.20
2018-04-13T05:13:01.039Z,17.00
2018-04-13T05:15:34.639Z,15.47
2018-04-13T05:18:08.242Z,14.87
2018-04-13T05:20:41.930Z,12.17
2018-04-13T05:23:15.637Z,12.67
2018-04-13T05:25:49.450Z,13.63
2018-04-13T05:28:24.077Z,13.40
2018-04-13T05:30:57.670Z,12.80
2018-04-13T05:33:31.379Z,14.17
2018-04-13T05:36:04.878Z,13.67
2018-04-13T05:38:38.573Z,13.40
2018-04-13T05:41:12.163Z,13.90
2018-04-13T05:43:45.887Z,12.83
2018-04-13T05:46:19.691Z,13.57
2018-04-13T05:48:53.994Z,14.17
2018-04-13T05:51:27.714Z,13.63
2018-04-13T05:54:01.306Z,14.50
2018-04-13T05:56:35.930Z,14.47
2018-04-13T05:59:09.742Z,13.83
2018-04-13T06:01:43.427Z,14.83
2018-04-13T06:04:17.024Z,15.03
2018-04-13T06:06:50.522Z,15.13
2018-04-13T06:09:24.110Z,16.10
2018-04-13T06:11:57.606Z,13.93
2018-04-13T06:14:31.134Z,13.70
2018-04-13T06:17:05.451Z,15.60
2018-04-13T06:19:39.123Z,14.20
2018-04-13T06:22:12.725Z,14.90
2018-04-13T06:24:47.159Z,14.37
2018-04-13T06:27:20.663Z,13.93
2018-04-13T06:29:54.190Z,14.47
2018-04-13T06:32:27.982Z,14.83
2018-04-13T06:35:01.667Z,14.07
2018-04-13T06:37:35.291Z,13.93
2018-04-13T06:40:08.883Z,15.90
2018-04-13T06:42:42.797Z,13.83
2018-04-13T06:45:16.359Z,13.70
2018-04-13T06:47:49.911Z,13.77
2018-04-13T06:50:24.178Z,12.97
2018-04-13T06:52:57.709Z,14.23
2018-04-13T06:55:31.413Z,14.03
2018-04-13T06:58:05.121Z,13.90
2018-04-13T07:00:38.659Z,14.20
2018-04-13T07:03:12.282Z,13.47
2018-04-13T07:05:45.870Z,13.77
2018-04-13T07:08:19.507Z,14.57
2018-04-13T07:10:53.077Z,14.67
2018-04-13T07:13:26.797Z,14.20
2018-04-13T07:16:00.629Z,15.20
2018-04-13T07:18:34.382Z,15.50
2018-04-13T07:21:07.918Z,15.00
2018-04-13T07:23:41.463Z,15.43
2018-04-13T07:26:15.118Z,15.60
2018-04-13T07:28:49.028Z,16.90
2018-04-13T07:31:22.554Z,17.20
2018-04-13T07:33:56.099Z,16.60
2018-04-13T07:36:29.842Z,19.03
2018-04-13T07:39:03.587Z,19.63
2018-04-13T07:41:37.178Z,20.30
2018-04-13T07:44:10.898Z,20.53
2018-04-13T07:46:44.427Z,19.67
2018-04-13T07:49:18.160Z,21.50
2018-04-13T07:51:51.670Z,21.87
2018-04-13T07:54:25.229Z,21.87
2018-04-13T07:56:58.739Z,21.63
2018-04-13T07:59:32.234Z,20.27
2018-04-13T08:02:05.852Z,20.73
2018-04-13T08:04:39.453Z,19.33
2018-04-13T08:07:13.779Z,21.43
2018-04-13T08:09:47.470Z,21.03
2018-04-13T08:12:21.170Z,20.37
2018-04-13T08:14:54.880Z,21.07
2018-04-13T08:17:28.702Z,21.97
2018-04-13T08:20:02.495Z,21.37
2018-04-13T08:22:36.294Z,21.60
2018-04-13T08:25:10.106Z,23.50
2018-04-13T08:27:44.112Z,21.57
2018-04-13T08:30:17.783Z,22.03
2018-04-13T08:32:51.369Z,23.53
2018-04-13T08:35:24.879Z,22.20
2018-04-13T08:37:58.518Z,22.83
2018-04-13T08:40:32.328Z,23.10
2018-04-13T08:43:06.034Z,23.30
2018-04-13T08:45:39.730Z,23.13
2018-04-13T08:48:13.536Z,24.60
2018-04-13T08:50:47.539Z,24.53
2018-04-13T08:53:21.047Z,26.03
2018-04-13T08:55:54.718Z,24.67
2018-04-13T08:58:28.439Z,23.73
2018-04-13T09:01:02.184Z,23.87
2018-04-13T09:03:35.953Z,23.97
2018-04-13T09:06:09.561Z,24.40
2018-04-13T09:08:43.494Z,25.57
2018-04-13T09:11:17.245Z,25.57
2018-04-13T09:13:50.758Z,26.83
2018-04-13T09:16:24.590Z,25.17
2018-04-13T09:18:58.881Z,25.80
2018-04-13T09:21:32.598Z,26.07
2018-04-13T09:24:06.198Z,27.63
2018-04-13T09:26:39.690Z,26.40
2018-04-13T09:29:13.219Z,26.33
2018-04-13T09:31:47.614Z,27.30
2018-04-13T09:34:21.211Z,25.73
2018-04-13T09:36:55.014Z,26.27
2018-04-13T09:39:29.031Z,26.17
2018-04-13T09:42:02.639Z,26.43
2018-04-13T09:44:37.148Z,25.73
2018-04-13T09:47:11.539Z,27.90
2018-04-13T09:49:45.275Z,27.30
2018-04-13T09:52:19.775Z,28.03
2018-04-13T09:54:53.395Z,27.87
2018-04-13T09:57:27.180Z,28.77
2018-04-13T10:00:00.915Z,31.17
2018-04-13T10:02:37.550Z,31.20
2018-04-13T10:05:16.262Z,31.20
2018-04-13T10:07:49.987Z,31.17
2018-04-13T10:10:23.596Z,32.90
2018-04-13T10:12:57.159Z,33.00
2018-04-13T10:15:30.814Z,34.30
2018-04-13T10:18:04.375Z,35.37
2018-04-13T10:20:37.998Z,36.67
2018-04-13T10:23:12.400Z,38.13
2018-04-13T10:25:46.019Z,36.30
2018-04-13T10:28:19.939Z,39.10
2018-04-13T10:30:53.623Z,37.90
2018-04-13T10:33:27.339Z,39.57
2018-04-13T10:36:01.142Z,40.40
2018-04-13T10:38:34.849Z,42.57
2018-04-13T10:41:08.439Z,41.17
2018-04-13T10:43:42.859Z,39.57
2018-04-13T10:46:16.392Z,40.53
2018-04-13T10:48:49.947Z,42.87
2018-04-13T10:51:23.572Z,42.63
2018-04-13T10:53:57.283Z,41.27
2018-04-13T10:56:30.907Z,41.63
2018-04-13T10:59:04.573Z,41.83
2018-04-13T11:01:38.260Z,40.47
2018-04-13T11:04:11.986Z,43.33
2018-04-13T11:06:45.994Z,43.70
2018-04-13T11:09:19.599Z,43.90
2018-04-13T11:11:53.398Z,43.67
2018-04-13T11:14:27.101Z,44.27
2018-04-13T11:17:00.696Z,45.33
2018-04-13T11:19:34.314Z,46.50
2018-04-13T11:22:08.010Z,45.50
2018-04-13T11:24:41.685Z,47.60
2018-04-13T11:27:15.369Z,46.73
2018-04-13T11:29:49.023Z,45.60
2018-04-13T11:32:22.702Z,46.50
2018-04-13T11:34:57.242Z,47.43
2018-04-13T11:37:31.563Z,42.13
2018-04-13T11:40:05.259Z,46.23
2018-04-13T11:42:39.032Z,48.07
2018-04-13T11:45:13.486Z,47.77
2018-04-13T11:47:47.307Z,47.73
2018-04-13T11:50:21.095Z,48.97
2018-04-13T11:52:54.810Z,45.23
2018-04-13T11:55:28.340Z,47.93
2018-04-13T11:58:02.106Z,49.70
2018-04-13T12:00:36.612Z,48.33
2018-04-13T12:03:10.334Z,48.87
2018-04-13T12:05:44.032Z,47.10
2018-04-13T12:08:17.736Z,48.97
2018-04-13T12:10:51.538Z,48.77
2018-04-13T12:13:26.062Z,49.60
2018-04-13T12:15:59.630Z,52.70
2018-04-13T12:18:33.567Z,49.80
2018-04-13T12:21:07.374Z,47.23
2018-04-13T12:23:41.903Z,48.83
2018-04-13T12:26:15.816Z,47.53
2018-04-13T12:28:49.544Z,46.77
2018-04-13T12:31:23.168Z,36.03
2018-04-13T12:33:56.638Z,38.60
2018-04-13T12:36:30.287Z,37.13
2018-04-13T12:39:03.818Z,33.90
2018-04-13T12:41:37.419Z,36.77
2018-04-13T12:44:10.966Z,34.70
2018-04-13T12:46:44.514Z,35.00
2018-04-13T12:49:18.121Z,35.17
2018-04-13T12:51:51.818Z,35.73
2018-04-13T12:54:25.394Z,35.07
2018-04-13T12:56:59.014Z,37.87
2018-04-13T12:59:32.542Z,35.87
2018-04-13T13:02:06.394Z,37.43
2018-04-13T13:04:39.991Z,34.33
2018-04-13T13:07:13.830Z,34.73
2018-04-13T13:09:47.348Z,32.10
2018-04-13T13:12:20.899Z,33.47
2018-04-13T13:14:55.455Z,32.93
2018-04-13T13:17:28.954Z,35.00
2018-04-13T13:20:02.651Z,35.30
2018-04-13T13:22:37.168Z,34.67
2018-04-13T13:25:10.886Z,35.33
2018-04-13T13:27:44.685Z,36.27
2018-04-13T13:30:18.496Z,36.03
2018-04-13T13:32:51.991Z,37.07
2018-04-13T13:35:25.586Z,37.90
2018-04-13T13:37:59.986Z,32.83
2018-04-13T13:40:34.535Z,27.43
2018-04-13T13:43:08.214Z,29.80
2018-04-13T13:45:41.940Z,30.33
2018-04-13T13:48:15.751Z,27.47
2018-04-13T13:50:49.466Z,28.00
2018-04-13T13:53:23.161Z,28.27
2018-04-13T13:55:56.882Z,29.67
2018-04-13T13:58:30.762Z,29.97
2018-04-13T14:01:05.110Z,30.50
2018-04-13T14:03:38.777Z,31.87
2018-04-13T14:06:12.582Z,31.33
2018-04-13T14:08:46.390Z,30.73
2018-04-13T14:11:21.018Z,33.10
2018-04-13T14:13:54.692Z,31.43
2018-04-13T14:16:28.430Z,33.13
2018-04-13T14:19:02.095Z,33.47
2018-04-13T14:21:35.691Z,33.10
2018-04-13T14:24:09.187Z,32.23
2018-04-13T14:26:42.718Z,32.43
2018-04-13T14:29:16.423Z,29.00
2018-04-13T14:31:50.242Z,31.53
2018-04-13T14:34:24.046Z,30.43
2018-04-13T14:36:57.846Z,29.90
2018-04-13T14:39:31.558Z,31.53
2018-04-13T14:42:05.138Z,28.60
2018-04-13T14:44:38.902Z,28.90
2018-04-13T14:47:12.590Z,30.73
2018-04-13T14:49:46.262Z,30.33
2018-04-13T14:52:19.955Z,31.27
2018-04-13T14:54:53.870Z,33.70
2018-04-13T14:57:27.559Z,33.67
2018-04-13T15:00:01.345Z,32.90
2018-04-13T15:02:35.134Z,30.33
2018-04-13T15:05:08.715Z,32.30
2018-04-13T15:07:42.482Z,31.63
2018-04-13T15:10:16.286Z,31.63
2018-04-13T15:12:50.225Z,29.33
2018-04-13T15:15:23.865Z,30.00
2018-04-13T15:17:58.323Z,27.77
2018-04-13T15:20:31.921Z,27.33
2018-04-13T15:23:05.627Z,25.73
2018-04-13T15:25:39.411Z,25.53
2018-04-13T15:28:13.101Z,23.03
2018-04-13T15:30:47.418Z,22.37
2018-04-13T15:33:21.252Z,22.80
2018-04-13T15:35:54.917Z,24.77
2018-04-13T15:38:29.379Z,24.53
2018-04-13T15:41:03.067Z,24.50
2018-04-13T15:43:36.668Z,23.50
2018-04-13T15:46:10.394Z,25.67
2018-04-13T15:48:43.950Z,26.57
2018-04-13T15:51:17.463Z,26.40
2018-04-13T15:53:50.999Z,27.33
2018-04-13T15:56:24.581Z,24.70
2018-04-13T15:58:58.107Z,26.50
2018-04-13T16:01:31.803Z,24.60
2018-04-13T16:04:05.599Z,25.40
2018-04-13T16:06:39.203Z,23.37
2018-04-13T16:09:13.002Z,19.27
2018-04-13T16:11:46.566Z,17.30
2018-04-13T16:14:20.106Z,18.47
2018-04-13T16:16:53.798Z,19.37
2018-04-13T16:19:27.838Z,19.03
2018-04-13T16:22:02.100Z,19.83
2018-04-13T16:24:35.839Z,20.30
2018-04-13T16:27:09.555Z,18.10
2018-04-13T16:29:43.128Z,16.03
2018-04-13T16:32:16.848Z,15.47
2018-04-13T16:34:51.384Z,14.67
2018-04-13T16:37:24.934Z,14.03
2018-04-13T16:39:58.687Z,14.73
2018-04-13T16:42:32.219Z,14.30
2018-04-13T16:45:05.760Z,14.57
2018-04-13T16:47:39.466Z,12.27
2018-04-13T16:50:13.278Z,13.33
2018-04-13T16:52:46.975Z,13.50
2018-04-13T16:55:20.682Z,13.37
2018-04-13T16:57:54.488Z,14.67
2018-04-13T17:00:28.201Z,13.57
2018-04-13T17:03:01.891Z,13.50
2018-04-13T17:05:36.319Z,13.53
2018-04-13T17:08:09.987Z,11.97
2018-04-13T17:10:43.638Z,10.83
2018-04-13T17:13:17.315Z,11.63
2018-04-13T17:15:50.923Z,11.17
2018-04-13T17:18:24.458Z,11.17
2018-04-13T17:20:58.205Z,11.40
2018-04-13T17:23:31.918Z,11.67
2018-04-13T17:26:05.932Z,11.27
2018-04-13T17:28:39.541Z,11.30
2018-04-13T17:31:14.166Z,11.80
2018-04-13T17:33:49.027Z,12.37
2018-04-13T17:36:22.667Z,13.40
2018-04-13T17:38:56.202Z,12.43
2018-04-13T17:41:30.002Z,12.97
2018-04-13T17:44:03.702Z,12.33
2018-04-13T17:46:37.342Z,13.10
2018-04-13T17:49:10.850Z,13.30
2018-04-13T17:51:44.514Z,13.57
2018-04-13T17:54:18.192Z,13.33
2018-04-13T17:56:51.698Z,12.53
2018-04-13T17:59:25.402Z,13.73
2018-04-13T18:01:59.014Z,14.67
2018-04-13T18:04:32.811Z,14.27
2018-04-13T18:07:06.547Z,14.63
2018-04-13T18:09:40.250Z,14.77
2018-04-13T18:12:13.823Z,15.27
2018-04-13T18:14:47.631Z,15.43
2018-04-13T18:17:21.210Z,14.43
2018-04-13T18:19:54.734Z,14.13
2018-04-13T18:22:28.386Z,14.63
2018-04-13T18:25:01.931Z,14.53
2018-04-13T18:27:35.630Z,14.50
2018-04-13T18:30:09.303Z,14.33
2018-04-13T18:32:43.035Z,13.33
2018-04-13T18:35:16.735Z,12.90
2018-04-13T18:37:50.452Z,12.27
2018-04-13T18:40:24.251Z,12.50
2018-04-13T18:42:58.042Z,12.17
2018-04-13T18:45:31.662Z,9.93
2018-04-13T18:48:05.464Z,11.73
2018-04-13T18:50:39.180Z,11.67
2018-04-13T18:53:12.835Z,11.53
2018-04-13T18:55:46.471Z,10.67
2018-04-13T18:58:20.786Z,11.53
2018-04-13T19:00:54.343Z,11.33
2018-04-13T19:03:28.306Z,11.20
2018-04-13T19:06:01.918Z,11.97
2018-04-13T19:08:35.694Z,11.10
2018-04-13T19:11:09.406Z,12.47
2018-04-13T19:13:43.110Z,11.70
2018-04-13T19:16:16.911Z,13.57
2018-04-13T19:18:50.520Z,12.20
2018-04-13T19:21:24.331Z,13.87
2018-04-13T19:23:57.983Z,15.40
2018-04-13T19:26:31.728Z,14.70
2018-04-13T19:29:05.343Z,15.60
2018-04-13T19:31:38.930Z,17.27
2018-04-13T19:34:12.826Z,17.53
2018-04-13T19:36:47.235Z,19.77
2018-04-13T19:39:20.954Z,15.87
2018-04-13T19:41:54.448Z,19.30
2018-04-13T19:44:28.013Z,18.90
2018-04-13T19:47:01.775Z,19.30
2018-04-13T19:49:35.491Z,20.20
2018-04-13T19:52:09.167Z,21.43
2018-04-13T19:54:42.779Z,21.87
2018-04-13T19:57:16.567Z,23.07
2018-04-13T19:59:50.170Z,21.87
2018-04-13T20:02:24.047Z,25.77
2018-04-13T20:04:57.790Z,23.47
2018-04-13T20:07:31.592Z,29.83
2018-04-13T20:10:05.408Z,26.00
2018-04-13T20:12:39.204Z,25.00
2018-04-13T20:15:20.348Z,26.43
2018-04-13T20:17:54.007Z,28.33
2018-04-13T20:20:27.604Z,28.07
2018-04-13T20:23:01.182Z,33.00
2018-04-13T20:25:35.611Z,35.73
2018-04-13T20:28:09.207Z,34.80
2018-04-13T20:30:43.011Z,38.83
2018-04-13T20:33:17.515Z,38.13
2018-04-13T20:35:51.090Z,37.27
2018-04-13T20:38:24.624Z,38.80
2018-04-13T20:40:58.435Z,42.83
2018-04-13T20:43:32.082Z,45.20
2018-04-13T20:46:05.842Z,46.97
2018-04-13T20:48:39.546Z,46.63
2018-04-13T20:51:13.247Z,48.67
2018-04-13T20:53:46.794Z,47.13
2018-04-13T20:56:21.262Z,47.07
2018-04-13T20:58:54.870Z,45.33
2018-04-13T21:01:29.394Z,46.63
2018-04-13T21:04:02.954Z,48.07
2018-04-13T21:06:36.691Z,49.03
2018-04-13T21:09:10.365Z,50.97
2018-04-13T21:11:44.103Z,54.00
2018-04-13T21:14:18.599Z,53.93
2018-04-13T21:16:52.322Z,52.40
2018-04-13T21:19:26.831Z,54.03
2018-04-13T21:22:02.119Z,57.90
2018-04-13T21:24:36.683Z,55.80
2018-04-13T21:27:10.239Z,59.50
2018-04-13T21:29:43.897Z,61.23
2018-04-13T21:32:17.498Z,60.40
2018-04-13T21:34:51.131Z,61.40
2018-04-13T21:37:25.028Z,62.03
2018-04-13T21:39:58.834Z,57.07
2018-04-13T21:42:45.574Z,66.40
2018-04-13T21:45:24.221Z,65.20
2018-04-13T21:48:09.818Z,63.90
2018-04-13T21:51:45.808Z,61.37
2018-04-13T21:54:19.612Z,61.03
2018-04-13T21:56:59.063Z,63.83
2018-04-13T21:59:39.543Z,63.20
2018-04-13T22:02:29.330Z,61.63
2018-04-13T22:07:52.919Z,63.63
2018-04-13T22:10:26.583Z,58.90
2018-04-13T22:13:12.721Z,60.70
2018-04-13T22:15:46.374Z,53.40
2018-04-13T22:18:20.696Z,55.13
2018-04-13T22:20:54.394Z,51.97
2018-04-13T22:23:28.200Z,48.23
2018-04-13T22:26:02.690Z,47.47
2018-04-13T22:28:37.122Z,42.27
2018-04-13T22:31:10.710Z,45.63
2018-04-13T22:33:44.446Z,42.53
2018-04-13T22:36:18.046Z,41.27
2018-04-13T22:38:51.854Z,39.13
2018-04-13T22:41:25.402Z,38.80
2018-04-13T22:43:59.142Z,40.57
2018-04-13T22:46:32.855Z,40.73
2018-04-13T22:49:06.667Z,42.60
2018-04-13T22:51:40.467Z,40.73
2018-04-13T22:54:14.073Z,39.27
2018-04-13T22:56:48.117Z,39.90
2018-04-13T22:59:21.811Z,38.03
2018-04-13T23:01:55.354Z,37.53
2018-04-13T23:04:28.975Z,36.83
2018-04-13T23:07:03.382Z,39.97
2018-04-13T23:09:37.103Z,37.17
2018-04-13T23:12:10.745Z,38.83
2018-04-13T23:14:44.286Z,39.20
2018-04-13T23:17:17.907Z,38.33
2018-04-13T23:19:51.510Z,39.17
2018-04-13T23:22:36.989Z,35.10
2018-04-13T23:25:10.848Z,38.73
2018-04-13T23:27:44.547Z,37.97
2018-04-13T23:30:18.198Z,38.00
2018-04-13T23:32:51.802Z,39.20
2018-04-13T23:35:25.509Z,38.90
2018-04-13T23:37:59.209Z,39.50
2018-04-13T23:40:32.810Z,41.33
2018-04-13T23:43:06.613Z,40.33
2018-04-13T23:45:40.273Z,37.93
2018-04-13T23:48:14.836Z,37.03
2018-04-13T23:50:48.441Z,36.53
2018-04-13T23:53:22.251Z,35.17
2018-04-13T23:55:56.046Z,35.93
2018-04-13T23:58:29.858Z,35.17
